sensor_id;sensor_type;location;lat;lon;timestamp;temperature;humidity
75190;HTU21D;69198;44.694;37.790;2023-11-18T00:00:25;8.58;82.20
75190;HTU21D;69198;44.694;37.790;2023-11-18T00:01:32;8.57;82.71
75190;HTU21D;69198;44.694;37.790;2023-11-18T00:02:35;8.56;83.39
75190;HTU21D;69198;44.694;37.790;2023-11-18T00:03:36;8.58;83.94
75190;HTU21D;69198;44.694;37.790;2023-11-18T00:04:38;8.52;84.15
75190;HTU21D;69198;44.694;37.790;2023-11-18T00:05:39;8.60;85.16
75190;HTU21D;69198;44.694;37.790;2023-11-18T00:06:39;8.57;85.16
75190;HTU21D;69198;44.694;37.790;2023-11-18T00:07:41;8.56;85.20
75190;HTU21D;69198;44.694;37.790;2023-11-18T00:08:42;8.51;85.43
75190;HTU21D;69198;44.694;37.790;2023-11-18T00:09:43;8.50;85.75
75190;HTU21D;69198;44.694;37.790;2023-11-18T00:10:46;8.51;85.86
75190;HTU21D;69198;44.694;37.790;2023-11-18T00:11:48;8.50;86.13
75190;HTU21D;69198;44.694;37.790;2023-11-18T00:12:49;8.47;86.45
75190;HTU21D;69198;44.694;37.790;2023-11-18T00:13:50;8.48;87.09
75190;HTU21D;69198;44.694;37.790;2023-11-18T00:14:51;8.45;87.29
75190;HTU21D;69198;44.694;37.790;2023-11-18T00:15:52;8.43;87.50
75190;HTU21D;69198;44.694;37.790;2023-11-18T00:16:53;8.38;87.57
75190;HTU21D;69198;44.694;37.790;2023-11-18T00:17:54;8.36;87.80
75190;HTU21D;69198;44.694;37.790;2023-11-18T00:18:55;8.34;87.94
75190;HTU21D;69198;44.694;37.790;2023-11-18T00:19:56;8.28;87.86
75190;HTU21D;69198;44.694;37.790;2023-11-18T00:20:58;8.23;87.80
75190;HTU21D;69198;44.694;37.790;2023-11-18T00:21:59;8.21;88.09
75190;HTU21D;69198;44.694;37.790;2023-11-18T00:23:00;8.18;88.16
75190;HTU21D;69198;44.694;37.790;2023-11-18T00:24:05;8.16;88.23
75190;HTU21D;69198;44.694;37.790;2023-11-18T00:25:08;8.12;88.28
75190;HTU21D;69198;44.694;37.790;2023-11-18T00:26:10;8.09;88.45
75190;HTU21D;69198;44.694;37.790;2023-11-18T00:27:11;8.04;88.60
75190;HTU21D;69198;44.694;37.790;2023-11-18T00:28:13;8.03;88.50
75190;HTU21D;69198;44.694;37.790;2023-11-18T00:29:14;8.02;88.54
75190;HTU21D;69198;44.694;37.790;2023-11-18T00:30:15;8.02;89.15
75190;HTU21D;69198;44.694;37.790;2023-11-18T00:31:16;8.04;89.10
75190;HTU21D;69198;44.694;37.790;2023-11-18T00:32:17;8.04;89.21
75190;HTU21D;69198;44.694;37.790;2023-11-18T00:33:19;8.03;89.44
75190;HTU21D;69198;44.694;37.790;2023-11-18T00:34:20;8.00;89.50
75190;HTU21D;69198;44.694;37.790;2023-11-18T00:35:22;7.97;89.51
75190;HTU21D;69198;44.694;37.790;2023-11-18T00:36:23;7.97;89.79
75190;HTU21D;69198;44.694;37.790;2023-11-18T00:37:24;7.99;89.86
75190;HTU21D;69198;44.694;37.790;2023-11-18T00:38:26;7.97;89.83
75190;HTU21D;69198;44.694;37.790;2023-11-18T00:39:27;7.96;89.91
75190;HTU21D;69198;44.694;37.790;2023-11-18T00:40:28;7.98;90.12
75190;HTU21D;69198;44.694;37.790;2023-11-18T00:41:32;7.99;90.09
75190;HTU21D;69198;44.694;37.790;2023-11-18T00:42:33;8.00;90.18
75190;HTU21D;69198;44.694;37.790;2023-11-18T00:43:34;8.02;90.33
75190;HTU21D;69198;44.694;37.790;2023-11-18T00:44:35;8.06;90.28
75190;HTU21D;69198;44.694;37.790;2023-11-18T00:45:36;8.06;90.25
75190;HTU21D;69198;44.694;37.790;2023-11-18T00:46:37;8.08;90.35
75190;HTU21D;69198;44.694;37.790;2023-11-18T00:47:39;8.07;90.51
75190;HTU21D;69198;44.694;37.790;2023-11-18T00:48:41;8.11;90.60
75190;HTU21D;69198;44.694;37.790;2023-11-18T00:49:42;8.09;90.68
75190;HTU21D;69198;44.694;37.790;2023-11-18T00:50:43;8.13;91.01
75190;HTU21D;69198;44.694;37.790;2023-11-18T00:51:44;8.18;91.08
75190;HTU21D;69198;44.694;37.790;2023-11-18T00:52:46;8.20;91.02
75190;HTU21D;69198;44.694;37.790;2023-11-18T00:53:48;8.21;90.92
75190;HTU21D;69198;44.694;37.790;2023-11-18T00:54:50;8.21;90.70
75190;HTU21D;69198;44.694;37.790;2023-11-18T00:55:51;8.18;90.65
75190;HTU21D;69198;44.694;37.790;2023-11-18T00:56:52;8.17;90.82
75190;HTU21D;69198;44.694;37.790;2023-11-18T00:57:53;8.18;90.74
75190;HTU21D;69198;44.694;37.790;2023-11-18T00:58:54;8.15;90.76
75190;HTU21D;69198;44.694;37.790;2023-11-18T00:59:55;8.12;90.86
75190;HTU21D;69198;44.694;37.790;2023-11-18T01:00:57;8.07;90.86
75190;HTU21D;69198;44.694;37.790;2023-11-18T01:01:57;8.07;90.93
75190;HTU21D;69198;44.694;37.790;2023-11-18T01:02:59;8.06;90.90
75190;HTU21D;69198;44.694;37.790;2023-11-18T01:04:00;8.03;90.96
75190;HTU21D;69198;44.694;37.790;2023-11-18T01:05:01;8.03;90.91
75190;HTU21D;69198;44.694;37.790;2023-11-18T01:06:02;8.03;90.89
75190;HTU21D;69198;44.694;37.790;2023-11-18T01:07:05;8.00;90.89
75190;HTU21D;69198;44.694;37.790;2023-11-18T01:08:06;8.00;90.95
75190;HTU21D;69198;44.694;37.790;2023-11-18T01:09:08;7.99;90.82
75190;HTU21D;69198;44.694;37.790;2023-11-18T01:10:10;7.96;90.76
75190;HTU21D;69198;44.694;37.790;2023-11-18T01:11:18;7.94;90.86
75190;HTU21D;69198;44.694;37.790;2023-11-18T01:12:23;7.91;90.95
75190;HTU21D;69198;44.694;37.790;2023-11-18T01:13:24;7.93;91.07
75190;HTU21D;69198;44.694;37.790;2023-11-18T01:14:27;7.96;91.09
75190;HTU21D;69198;44.694;37.790;2023-11-18T01:15:28;7.99;91.11
75190;HTU21D;69198;44.694;37.790;2023-11-18T01:16:29;8.00;91.10
75190;HTU21D;69198;44.694;37.790;2023-11-18T01:17:31;7.99;91.05
75190;HTU21D;69198;44.694;37.790;2023-11-18T01:18:33;8.01;91.20
75190;HTU21D;69198;44.694;37.790;2023-11-18T01:19:35;8.02;91.15
75190;HTU21D;69198;44.694;37.790;2023-11-18T01:20:36;8.01;91.15
75190;HTU21D;69198;44.694;37.790;2023-11-18T01:21:38;8.01;91.21
75190;HTU21D;69198;44.694;37.790;2023-11-18T01:22:39;8.01;91.21
75190;HTU21D;69198;44.694;37.790;2023-11-18T01:23:42;7.98;91.13
75190;HTU21D;69198;44.694;37.790;2023-11-18T01:24:45;7.99;91.18
75190;HTU21D;69198;44.694;37.790;2023-11-18T01:25:46;7.96;91.20
75190;HTU21D;69198;44.694;37.790;2023-11-18T01:26:50;7.98;91.21
75190;HTU21D;69198;44.694;37.790;2023-11-18T01:27:51;7.97;91.18
75190;HTU21D;69198;44.694;37.790;2023-11-18T01:28:52;7.98;91.15
75190;HTU21D;69198;44.694;37.790;2023-11-18T01:29:53;8.00;91.15
75190;HTU21D;69198;44.694;37.790;2023-11-18T01:30:54;8.02;91.25
75190;HTU21D;69198;44.694;37.790;2023-11-18T01:31:56;8.02;91.32
75190;HTU21D;69198;44.694;37.790;2023-11-18T01:32:57;8.02;91.31
75190;HTU21D;69198;44.694;37.790;2023-11-18T01:33:58;8.02;91.40
75190;HTU21D;69198;44.694;37.790;2023-11-18T01:35:00;8.07;91.56
75190;HTU21D;69198;44.694;37.790;2023-11-18T01:36:02;8.08;91.56
75190;HTU21D;69198;44.694;37.790;2023-11-18T01:37:04;8.09;91.56
75190;HTU21D;69198;44.694;37.790;2023-11-18T01:38:08;8.14;91.66
75190;HTU21D;69198;44.694;37.790;2023-11-18T01:39:09;8.20;91.89
75190;HTU21D;69198;44.694;37.790;2023-11-18T01:40:11;8.30;92.11
75190;HTU21D;69198;44.694;37.790;2023-11-18T01:41:16;8.33;92.11
75190;HTU21D;69198;44.694;37.790;2023-11-18T01:42:19;8.37;92.50
75190;HTU21D;69198;44.694;37.790;2023-11-18T01:43:21;8.38;92.53
75190;HTU21D;69198;44.694;37.790;2023-11-18T01:44:22;8.41;92.50
75190;HTU21D;69198;44.694;37.790;2023-11-18T01:45:25;8.39;92.52
75190;HTU21D;69198;44.694;37.790;2023-11-18T01:46:27;8.44;92.51
75190;HTU21D;69198;44.694;37.790;2023-11-18T01:47:33;8.48;92.34
75190;HTU21D;69198;44.694;37.790;2023-11-18T01:48:34;8.51;92.26
75190;HTU21D;69198;44.694;37.790;2023-11-18T01:49:36;8.57;92.11
75190;HTU21D;69198;44.694;37.790;2023-11-18T01:50:41;8.62;91.85
75190;HTU21D;69198;44.694;37.790;2023-11-18T01:51:44;8.62;91.63
75190;HTU21D;69198;44.694;37.790;2023-11-18T01:52:47;8.65;91.44
75190;HTU21D;69198;44.694;37.790;2023-11-18T01:53:49;8.67;91.37
75190;HTU21D;69198;44.694;37.790;2023-11-18T01:54:51;8.72;91.26
75190;HTU21D;69198;44.694;37.790;2023-11-18T01:55:55;8.76;91.19
75190;HTU21D;69198;44.694;37.790;2023-11-18T01:56:57;8.79;91.05
75190;HTU21D;69198;44.694;37.790;2023-11-18T01:57:58;8.87;91.12
75190;HTU21D;69198;44.694;37.790;2023-11-18T01:59:00;8.92;91.02
75190;HTU21D;69198;44.694;37.790;2023-11-18T02:00:04;9.01;91.23
75190;HTU21D;69198;44.694;37.790;2023-11-18T02:01:14;9.15;91.22
75190;HTU21D;69198;44.694;37.790;2023-11-18T02:02:18;9.21;91.02
75190;HTU21D;69198;44.694;37.790;2023-11-18T02:03:21;9.25;90.77
75190;HTU21D;69198;44.694;37.790;2023-11-18T02:04:22;9.23;90.39
75190;HTU21D;69198;44.694;37.790;2023-11-18T02:05:24;9.22;90.18
75190;HTU21D;69198;44.694;37.790;2023-11-18T02:06:25;9.20;89.92
75190;HTU21D;69198;44.694;37.790;2023-11-18T02:07:27;9.21;89.79
75190;HTU21D;69198;44.694;37.790;2023-11-18T02:08:29;9.22;89.72
75190;HTU21D;69198;44.694;37.790;2023-11-18T02:09:30;9.22;89.59
75190;HTU21D;69198;44.694;37.790;2023-11-18T02:10:32;9.21;89.51
75190;HTU21D;69198;44.694;37.790;2023-11-18T02:11:41;9.21;89.43
75190;HTU21D;69198;44.694;37.790;2023-11-18T02:12:55;9.23;89.36
75190;HTU21D;69198;44.694;37.790;2023-11-18T02:14:01;9.21;89.33
75190;HTU21D;69198;44.694;37.790;2023-11-18T02:15:05;9.21;89.28
75190;HTU21D;69198;44.694;37.790;2023-11-18T02:16:11;9.25;89.32
75190;HTU21D;69198;44.694;37.790;2023-11-18T02:17:14;9.27;89.27
75190;HTU21D;69198;44.694;37.790;2023-11-18T02:18:16;9.32;89.05
75190;HTU21D;69198;44.694;37.790;2023-11-18T02:19:24;9.35;88.76
75190;HTU21D;69198;44.694;37.790;2023-11-18T02:20:25;9.37;88.44
75190;HTU21D;69198;44.694;37.790;2023-11-18T02:21:27;9.36;88.21
75190;HTU21D;69198;44.694;37.790;2023-11-18T02:22:29;9.35;88.07
75190;HTU21D;69198;44.694;37.790;2023-11-18T02:23:30;9.32;88.06
75190;HTU21D;69198;44.694;37.790;2023-11-18T02:24:32;9.34;87.89
75190;HTU21D;69198;44.694;37.790;2023-11-18T02:25:46;9.33;87.76
75190;HTU21D;69198;44.694;37.790;2023-11-18T02:26:49;9.33;87.81
75190;HTU21D;69198;44.694;37.790;2023-11-18T02:27:51;9.34;87.76
75190;HTU21D;69198;44.694;37.790;2023-11-18T02:28:52;9.32;87.67
75190;HTU21D;69198;44.694;37.790;2023-11-18T02:29:54;9.32;87.55
75190;HTU21D;69198;44.694;37.790;2023-11-18T02:31:03;9.32;87.41
75190;HTU21D;69198;44.694;37.790;2023-11-18T02:32:22;9.31;87.22
75190;HTU21D;69198;44.694;37.790;2023-11-18T02:33:35;9.27;87.20
75190;HTU21D;69198;44.694;37.790;2023-11-18T02:34:49;9.25;87.24
75190;HTU21D;69198;44.694;37.790;2023-11-18T02:35:54;9.24;87.25
75190;HTU21D;69198;44.694;37.790;2023-11-18T02:36:58;9.24;87.22
75190;HTU21D;69198;44.694;37.790;2023-11-18T02:38:04;9.23;87.22
75190;HTU21D;69198;44.694;37.790;2023-11-18T02:39:10;9.23;87.21
75190;HTU21D;69198;44.694;37.790;2023-11-18T02:40:20;9.25;87.30
75190;HTU21D;69198;44.694;37.790;2023-11-18T02:41:24;9.24;87.32
75190;HTU21D;69198;44.694;37.790;2023-11-18T02:42:26;9.25;87.31
75190;HTU21D;69198;44.694;37.790;2023-11-18T02:43:28;9.25;87.27
75190;HTU21D;69198;44.694;37.790;2023-11-18T02:44:30;9.23;87.25
75190;HTU21D;69198;44.694;37.790;2023-11-18T02:45:34;9.22;87.30
75190;HTU21D;69198;44.694;37.790;2023-11-18T02:46:37;9.22;87.37
75190;HTU21D;69198;44.694;37.790;2023-11-18T02:47:39;9.23;87.41
75190;HTU21D;69198;44.694;37.790;2023-11-18T02:48:40;9.26;87.38
75190;HTU21D;69198;44.694;37.790;2023-11-18T02:49:42;9.26;87.30
75190;HTU21D;69198;44.694;37.790;2023-11-18T02:50:43;9.26;87.26
75190;HTU21D;69198;44.694;37.790;2023-11-18T02:51:44;9.30;87.23
75190;HTU21D;69198;44.694;37.790;2023-11-18T02:52:48;9.33;87.19
75190;HTU21D;69198;44.694;37.790;2023-11-18T02:53:49;9.35;87.18
75190;HTU21D;69198;44.694;37.790;2023-11-18T02:54:51;9.37;87.14
75190;HTU21D;69198;44.694;37.790;2023-11-18T02:55:52;9.38;87.01
75190;HTU21D;69198;44.694;37.790;2023-11-18T02:56:53;9.38;86.90
75190;HTU21D;69198;44.694;37.790;2023-11-18T02:57:54;9.39;86.78
75190;HTU21D;69198;44.694;37.790;2023-11-18T02:58:55;9.39;86.63
75190;HTU21D;69198;44.694;37.790;2023-11-18T02:59:56;9.40;86.50
75190;HTU21D;69198;44.694;37.790;2023-11-18T03:00:58;9.42;86.34
75190;HTU21D;69198;44.694;37.790;2023-11-18T03:02:00;9.45;86.17
75190;HTU21D;69198;44.694;37.790;2023-11-18T03:03:02;9.44;86.06
75190;HTU21D;69198;44.694;37.790;2023-11-18T03:04:03;9.41;86.01
75190;HTU21D;69198;44.694;37.790;2023-11-18T03:05:07;9.42;85.96
75190;HTU21D;69198;44.694;37.790;2023-11-18T03:06:08;9.41;85.89
75190;HTU21D;69198;44.694;37.790;2023-11-18T03:07:12;9.41;85.84
75190;HTU21D;69198;44.694;37.790;2023-11-18T03:08:13;9.42;85.83
75190;HTU21D;69198;44.694;37.790;2023-11-18T03:09:14;9.44;85.73
75190;HTU21D;69198;44.694;37.790;2023-11-18T03:10:16;9.47;85.84
75190;HTU21D;69198;44.694;37.790;2023-11-18T03:11:24;9.49;85.80
75190;HTU21D;69198;44.694;37.790;2023-11-18T03:12:25;9.50;85.71
75190;HTU21D;69198;44.694;37.790;2023-11-18T03:13:29;9.49;85.65
75190;HTU21D;69198;44.694;37.790;2023-11-18T03:14:29;9.53;85.96
75190;HTU21D;69198;44.694;37.790;2023-11-18T03:15:31;9.60;86.11
75190;HTU21D;69198;44.694;37.790;2023-11-18T03:16:32;9.64;86.07
75190;HTU21D;69198;44.694;37.790;2023-11-18T03:17:33;9.64;86.00
75190;HTU21D;69198;44.694;37.790;2023-11-18T03:18:34;9.62;85.98
75190;HTU21D;69198;44.694;37.790;2023-11-18T03:19:36;9.63;85.98
75190;HTU21D;69198;44.694;37.790;2023-11-18T03:20:37;9.61;85.98
75190;HTU21D;69198;44.694;37.790;2023-11-18T03:21:39;9.61;86.13
75190;HTU21D;69198;44.694;37.790;2023-11-18T03:22:40;9.66;86.12
75190;HTU21D;69198;44.694;37.790;2023-11-18T03:23:42;9.67;86.01
75190;HTU21D;69198;44.694;37.790;2023-11-18T03:24:43;9.65;85.90
75190;HTU21D;69198;44.694;37.790;2023-11-18T03:25:45;9.64;85.86
75190;HTU21D;69198;44.694;37.790;2023-11-18T03:26:47;9.65;85.84
75190;HTU21D;69198;44.694;37.790;2023-11-18T03:27:49;9.71;86.25
75190;HTU21D;69198;44.694;37.790;2023-11-18T03:28:50;9.84;86.69
75190;HTU21D;69198;44.694;37.790;2023-11-18T03:29:51;9.99;86.89
75190;HTU21D;69198;44.694;37.790;2023-11-18T03:30:52;10.11;86.64
75190;HTU21D;69198;44.694;37.790;2023-11-18T03:31:54;10.19;86.40
75190;HTU21D;69198;44.694;37.790;2023-11-18T03:32:55;10.26;86.22
75190;HTU21D;69198;44.694;37.790;2023-11-18T03:33:56;10.30;86.06
75190;HTU21D;69198;44.694;37.790;2023-11-18T03:34:57;10.37;85.81
75190;HTU21D;69198;44.694;37.790;2023-11-18T03:35:59;10.40;85.80
75190;HTU21D;69198;44.694;37.790;2023-11-18T03:37:00;10.41;85.64
75190;HTU21D;69198;44.694;37.790;2023-11-18T03:38:02;10.39;85.51
75190;HTU21D;69198;44.694;37.790;2023-11-18T03:39:04;10.33;85.39
75190;HTU21D;69198;44.694;37.790;2023-11-18T03:40:14;10.29;85.25
75190;HTU21D;69198;44.694;37.790;2023-11-18T03:41:15;10.25;85.15
75190;HTU21D;69198;44.694;37.790;2023-11-18T03:42:16;10.23;85.06
75190;HTU21D;69198;44.694;37.790;2023-11-18T03:43:19;10.22;85.01
75190;HTU21D;69198;44.694;37.790;2023-11-18T03:44:21;10.20;84.91
75190;HTU21D;69198;44.694;37.790;2023-11-18T03:45:22;10.22;84.86
75190;HTU21D;69198;44.694;37.790;2023-11-18T03:46:23;10.23;84.78
75190;HTU21D;69198;44.694;37.790;2023-11-18T03:47:24;10.26;84.72
75190;HTU21D;69198;44.694;37.790;2023-11-18T03:48:25;10.27;84.62
75190;HTU21D;69198;44.694;37.790;2023-11-18T03:49:26;10.31;84.51
75190;HTU21D;69198;44.694;37.790;2023-11-18T03:50:28;10.33;84.40
75190;HTU21D;69198;44.694;37.790;2023-11-18T03:51:29;10.37;84.26
75190;HTU21D;69198;44.694;37.790;2023-11-18T03:52:30;10.40;84.18
75190;HTU21D;69198;44.694;37.790;2023-11-18T03:53:31;10.41;84.16
75190;HTU21D;69198;44.694;37.790;2023-11-18T03:54:34;10.42;84.11
75190;HTU21D;69198;44.694;37.790;2023-11-18T03:55:35;10.41;84.01
75190;HTU21D;69198;44.694;37.790;2023-11-18T03:56:36;10.39;83.94
75190;HTU21D;69198;44.694;37.790;2023-11-18T03:57:37;10.35;83.89
75190;HTU21D;69198;44.694;37.790;2023-11-18T03:58:38;10.29;83.90
75190;HTU21D;69198;44.694;37.790;2023-11-18T03:59:41;10.26;83.89
75190;HTU21D;69198;44.694;37.790;2023-11-18T04:00:42;10.23;83.90
75190;HTU21D;69198;44.694;37.790;2023-11-18T04:01:43;10.20;83.93
75190;HTU21D;69198;44.694;37.790;2023-11-18T04:02:44;10.18;83.94
75190;HTU21D;69198;44.694;37.790;2023-11-18T04:03:46;10.16;83.92
75190;HTU21D;69198;44.694;37.790;2023-11-18T04:04:47;10.16;83.88
75190;HTU21D;69198;44.694;37.790;2023-11-18T04:05:49;10.15;83.84
75190;HTU21D;69198;44.694;37.790;2023-11-18T04:06:50;10.13;83.84
75190;HTU21D;69198;44.694;37.790;2023-11-18T04:07:51;10.13;83.81
75190;HTU21D;69198;44.694;37.790;2023-11-18T04:08:52;10.14;83.84
75190;HTU21D;69198;44.694;37.790;2023-11-18T04:09:53;10.18;83.82
75190;HTU21D;69198;44.694;37.790;2023-11-18T04:10:54;10.19;83.85
75190;HTU21D;69198;44.694;37.790;2023-11-18T04:11:55;10.20;83.83
75190;HTU21D;69198;44.694;37.790;2023-11-18T04:12:56;10.21;83.80
75190;HTU21D;69198;44.694;37.790;2023-11-18T04:13:57;10.20;83.77
75190;HTU21D;69198;44.694;37.790;2023-11-18T04:14:58;10.19;83.78
75190;HTU21D;69198;44.694;37.790;2023-11-18T04:15:59;10.18;83.78
75190;HTU21D;69198;44.694;37.790;2023-11-18T04:17:00;10.19;83.78
75190;HTU21D;69198;44.694;37.790;2023-11-18T04:18:01;10.19;83.78
75190;HTU21D;69198;44.694;37.790;2023-11-18T04:19:04;10.16;83.78
75190;HTU21D;69198;44.694;37.790;2023-11-18T04:20:06;10.15;83.79
75190;HTU21D;69198;44.694;37.790;2023-11-18T04:21:12;10.15;83.81
75190;HTU21D;69198;44.694;37.790;2023-11-18T04:22:14;10.11;83.85
75190;HTU21D;69198;44.694;37.790;2023-11-18T04:23:15;10.13;83.85
75190;HTU21D;69198;44.694;37.790;2023-11-18T04:24:16;10.13;83.80
75190;HTU21D;69198;44.694;37.790;2023-11-18T04:25:17;10.12;83.80
75190;HTU21D;69198;44.694;37.790;2023-11-18T04:26:19;10.13;83.72
75190;HTU21D;69198;44.694;37.790;2023-11-18T04:27:20;10.12;83.66
75190;HTU21D;69198;44.694;37.790;2023-11-18T04:28:21;10.10;83.61
75190;HTU21D;69198;44.694;37.790;2023-11-18T04:29:22;10.07;83.62
75190;HTU21D;69198;44.694;37.790;2023-11-18T04:30:23;10.05;83.64
75190;HTU21D;69198;44.694;37.790;2023-11-18T04:31:27;9.99;83.70
75190;HTU21D;69198;44.694;37.790;2023-11-18T04:32:28;9.98;83.72
75190;HTU21D;69198;44.694;37.790;2023-11-18T04:33:29;9.96;83.75
75190;HTU21D;69198;44.694;37.790;2023-11-18T04:34:30;9.96;83.68
75190;HTU21D;69198;44.694;37.790;2023-11-18T04:35:33;9.95;83.68
75190;HTU21D;69198;44.694;37.790;2023-11-18T04:36:35;9.95;83.64
75190;HTU21D;69198;44.694;37.790;2023-11-18T04:37:36;9.93;83.59
75190;HTU21D;69198;44.694;37.790;2023-11-18T04:38:37;9.92;83.58
75190;HTU21D;69198;44.694;37.790;2023-11-18T04:39:39;9.90;83.56
75190;HTU21D;69198;44.694;37.790;2023-11-18T04:40:40;9.89;83.52
75190;HTU21D;69198;44.694;37.790;2023-11-18T04:41:43;9.89;83.52
75190;HTU21D;69198;44.694;37.790;2023-11-18T04:42:44;9.85;83.53
75190;HTU21D;69198;44.694;37.790;2023-11-18T04:43:46;9.84;83.55
75190;HTU21D;69198;44.694;37.790;2023-11-18T04:44:48;9.82;83.56
75190;HTU21D;69198;44.694;37.790;2023-11-18T04:45:49;9.79;83.61
75190;HTU21D;69198;44.694;37.790;2023-11-18T04:46:50;9.79;83.61
75190;HTU21D;69198;44.694;37.790;2023-11-18T04:47:53;9.77;83.66
75190;HTU21D;69198;44.694;37.790;2023-11-18T04:48:55;9.77;83.68
75190;HTU21D;69198;44.694;37.790;2023-11-18T04:49:56;9.72;83.69
75190;HTU21D;69198;44.694;37.790;2023-11-18T04:50:57;9.74;83.68
75190;HTU21D;69198;44.694;37.790;2023-11-18T04:51:58;9.72;83.65
75190;HTU21D;69198;44.694;37.790;2023-11-18T04:53:00;9.70;83.65
75190;HTU21D;69198;44.694;37.790;2023-11-18T04:54:01;9.69;83.66
75190;HTU21D;69198;44.694;37.790;2023-11-18T04:55:04;9.68;83.69
75190;HTU21D;69198;44.694;37.790;2023-11-18T04:56:07;9.66;83.74
75190;HTU21D;69198;44.694;37.790;2023-11-18T04:57:10;9.64;83.75
75190;HTU21D;69198;44.694;37.790;2023-11-18T04:58:12;9.64;83.74
75190;HTU21D;69198;44.694;37.790;2023-11-18T04:59:13;9.66;83.74
75190;HTU21D;69198;44.694;37.790;2023-11-18T05:00:14;9.64;83.77
75190;HTU21D;69198;44.694;37.790;2023-11-18T05:01:18;9.61;83.81
75190;HTU21D;69198;44.694;37.790;2023-11-18T05:02:19;9.61;83.85
75190;HTU21D;69198;44.694;37.790;2023-11-18T05:03:20;9.61;83.86
75190;HTU21D;69198;44.694;37.790;2023-11-18T05:04:22;9.62;83.85
75190;HTU21D;69198;44.694;37.790;2023-11-18T05:05:23;9.61;83.84
75190;HTU21D;69198;44.694;37.790;2023-11-18T05:06:24;9.61;83.84
75190;HTU21D;69198;44.694;37.790;2023-11-18T05:07:25;9.62;83.87
75190;HTU21D;69198;44.694;37.790;2023-11-18T05:08:26;9.64;83.86
75190;HTU21D;69198;44.694;37.790;2023-11-18T05:09:27;9.64;83.86
75190;HTU21D;69198;44.694;37.790;2023-11-18T05:10:28;9.68;83.81
75190;HTU21D;69198;44.694;37.790;2023-11-18T05:11:29;9.68;83.78
75190;HTU21D;69198;44.694;37.790;2023-11-18T05:12:30;9.70;83.77
75190;HTU21D;69198;44.694;37.790;2023-11-18T05:13:33;9.72;83.77
75190;HTU21D;69198;44.694;37.790;2023-11-18T05:14:34;9.72;83.74
75190;HTU21D;69198;44.694;37.790;2023-11-18T05:15:36;9.74;83.71
75190;HTU21D;69198;44.694;37.790;2023-11-18T05:16:38;9.76;83.74
75190;HTU21D;69198;44.694;37.790;2023-11-18T05:17:39;9.80;83.74
75190;HTU21D;69198;44.694;37.790;2023-11-18T05:18:40;9.88;83.71
75190;HTU21D;69198;44.694;37.790;2023-11-18T05:19:42;9.94;83.58
75190;HTU21D;69198;44.694;37.790;2023-11-18T05:20:44;9.98;83.45
75190;HTU21D;69198;44.694;37.790;2023-11-18T05:21:45;10.04;83.32
75190;HTU21D;69198;44.694;37.790;2023-11-18T05:22:50;10.07;83.23
75190;HTU21D;69198;44.694;37.790;2023-11-18T05:23:51;10.11;83.16
75190;HTU21D;69198;44.694;37.790;2023-11-18T05:24:52;10.15;83.13
75190;HTU21D;69198;44.694;37.790;2023-11-18T05:25:53;10.22;82.99
75190;HTU21D;69198;44.694;37.790;2023-11-18T05:26:56;10.28;82.85
75190;HTU21D;69198;44.694;37.790;2023-11-18T05:27:57;10.33;82.71
75190;HTU21D;69198;44.694;37.790;2023-11-18T05:28:58;10.37;82.59
75190;HTU21D;69198;44.694;37.790;2023-11-18T05:29:59;10.39;82.49
75190;HTU21D;69198;44.694;37.790;2023-11-18T05:31:00;10.40;82.41
75190;HTU21D;69198;44.694;37.790;2023-11-18T05:32:05;10.42;82.31
75190;HTU21D;69198;44.694;37.790;2023-11-18T05:33:07;10.41;82.27
75190;HTU21D;69198;44.694;37.790;2023-11-18T05:34:09;10.41;82.20
75190;HTU21D;69198;44.694;37.790;2023-11-18T05:35:10;10.42;82.17
75190;HTU21D;69198;44.694;37.790;2023-11-18T05:36:12;10.41;82.17
75190;HTU21D;69198;44.694;37.790;2023-11-18T05:37:13;10.40;82.16
75190;HTU21D;69198;44.694;37.790;2023-11-18T05:38:16;10.39;82.20
75190;HTU21D;69198;44.694;37.790;2023-11-18T05:39:19;10.39;82.23
75190;HTU21D;69198;44.694;37.790;2023-11-18T05:40:21;10.39;82.23
75190;HTU21D;69198;44.694;37.790;2023-11-18T05:41:22;10.38;82.21
75190;HTU21D;69198;44.694;37.790;2023-11-18T05:42:31;10.36;82.26
75190;HTU21D;69198;44.694;37.790;2023-11-18T05:43:33;10.35;82.29
75190;HTU21D;69198;44.694;37.790;2023-11-18T05:44:39;10.31;82.36
75190;HTU21D;69198;44.694;37.790;2023-11-18T05:45:40;10.31;82.39
75190;HTU21D;69198;44.694;37.790;2023-11-18T05:47:01;10.29;82.44
75190;HTU21D;69198;44.694;37.790;2023-11-18T05:48:02;10.29;82.42
75190;HTU21D;69198;44.694;37.790;2023-11-18T05:49:04;10.29;82.45
75190;HTU21D;69198;44.694;37.790;2023-11-18T05:50:08;10.28;82.46
75190;HTU21D;69198;44.694;37.790;2023-11-18T05:51:10;10.27;82.51
75190;HTU21D;69198;44.694;37.790;2023-11-18T05:52:12;10.28;82.52
75190;HTU21D;69198;44.694;37.790;2023-11-18T05:53:13;10.31;82.52
75190;HTU21D;69198;44.694;37.790;2023-11-18T05:54:14;10.34;82.53
75190;HTU21D;69198;44.694;37.790;2023-11-18T05:55:15;10.38;82.52
75190;HTU21D;69198;44.694;37.790;2023-11-18T05:56:16;10.41;82.51
75190;HTU21D;69198;44.694;37.790;2023-11-18T05:57:18;10.48;82.54
75190;HTU21D;69198;44.694;37.790;2023-11-18T05:58:19;10.56;82.41
75190;HTU21D;69198;44.694;37.790;2023-11-18T05:59:20;10.63;82.18
75190;HTU21D;69198;44.694;37.790;2023-11-18T06:00:24;10.65;82.04
75190;HTU21D;69198;44.694;37.790;2023-11-18T06:01:26;10.68;81.99
75190;HTU21D;69198;44.694;37.790;2023-11-18T06:02:30;10.73;81.86
75190;HTU21D;69198;44.694;37.790;2023-11-18T06:03:31;10.78;81.81
75190;HTU21D;69198;44.694;37.790;2023-11-18T06:04:32;10.81;81.75
75190;HTU21D;69198;44.694;37.790;2023-11-18T06:05:33;10.89;81.72
75190;HTU21D;69198;44.694;37.790;2023-11-18T06:06:35;11.00;81.68
75190;HTU21D;69198;44.694;37.790;2023-11-18T06:07:38;11.12;81.61
75190;HTU21D;69198;44.694;37.790;2023-11-18T06:08:40;11.29;81.28
75190;HTU21D;69198;44.694;37.790;2023-11-18T06:09:44;11.43;80.89
75190;HTU21D;69198;44.694;37.790;2023-11-18T06:10:47;11.57;80.69
75190;HTU21D;69198;44.694;37.790;2023-11-18T06:11:49;11.74;80.35
75190;HTU21D;69198;44.694;37.790;2023-11-18T06:12:50;11.91;80.12
75190;HTU21D;69198;44.694;37.790;2023-11-18T06:13:52;12.08;79.56
75190;HTU21D;69198;44.694;37.790;2023-11-18T06:14:53;12.18;79.01
75190;HTU21D;69198;44.694;37.790;2023-11-18T06:15:54;12.27;78.81
75190;HTU21D;69198;44.694;37.790;2023-11-18T06:16:56;12.37;78.69
75190;HTU21D;69198;44.694;37.790;2023-11-18T06:17:57;12.46;78.25
75190;HTU21D;69198;44.694;37.790;2023-11-18T06:18:58;12.52;78.03
75190;HTU21D;69198;44.694;37.790;2023-11-18T06:19:59;12.56;77.76
75190;HTU21D;69198;44.694;37.790;2023-11-18T06:21:00;12.55;77.45
75190;HTU21D;69198;44.694;37.790;2023-11-18T06:22:01;12.50;77.40
75190;HTU21D;69198;44.694;37.790;2023-11-18T06:23:02;12.44;77.34
75190;HTU21D;69198;44.694;37.790;2023-11-18T06:24:04;12.37;77.37
75190;HTU21D;69198;44.694;37.790;2023-11-18T06:25:06;12.32;77.53